<?xml version="1.0" encoding="UTF-8" standalone="no" ?>
<gpx xmlns="http://www.topografix.com/GPX/1/1" xmlns:xsi="http://www.w3.org/2001/XMLSchema-instance" xsi:schemaLocation="http://www.topografix.com/GPX/1/1 http://www.topografix.com/GPX/1/1/gpx.xsd" version="1.1" creator="VisuGPX - https://www.visugpx.com">
  <metadata>
    <name>ChapelleE_BoucleNordOuest_12.5km</name>
    <desc><![CDATA[gnerando idor:10579130]]></desc>
  </metadata>
  <trk>
    <name><![CDATA[ChapelleE_boucleNordOuest_12.5km-10579130]]></name>
    <extensions>
      <line xmlns="http://www.topografix.com/GPX/gpx_style/0/2">
        <color>0000FF</color>
        <width>4</width>
      </line>
    </extensions>
    <trkseg>
      <trkpt lat="47.29256" lon="-1.56564">
        <ele>23</ele>
        <time>2023-11-03T09:00:20Z</time>
      </trkpt>
      <trkpt lat="47.29241" lon="-1.56621">
        <ele>19</ele>
        <time>2023-11-03T09:01:15Z</time>
      </trkpt>
      <trkpt lat="47.29342" lon="-1.57162">
        <ele>16</ele>
        <time>2023-11-03T09:09:43Z</time>
      </trkpt>
      <trkpt lat="47.2922" lon="-1.57708">
        <ele>20</ele>
        <time>2023-11-03T09:18:24Z</time>
      </trkpt>
      <trkpt lat="47.29342" lon="-1.58055">
        <ele>36</ele>
        <time>2023-11-03T09:24:17Z</time>
      </trkpt>
      <trkpt lat="47.29432" lon="-1.58167">
        <ele>39</ele>
        <time>2023-11-03T09:26:54Z</time>
      </trkpt>
      <trkpt lat="47.29445" lon="-1.58438">
        <ele>35</ele>
        <time>2023-11-03T09:31:00Z</time>
      </trkpt>
      <trkpt lat="47.2947" lon="-1.58989">
        <ele>42</ele>
        <time>2023-11-03T09:39:20Z</time>
      </trkpt>
      <trkpt lat="47.29373" lon="-1.59198">
        <ele>48</ele>
        <time>2023-11-03T09:43:09Z</time>
      </trkpt>
      <trkpt lat="47.29428" lon="-1.59377">
        <ele>56</ele>
        <time>2023-11-03T09:46:07Z</time>
      </trkpt>
      <trkpt lat="47.30041" lon="-1.59055">
        <ele>53</ele>
        <time>2023-11-03T10:00:36Z</time>
      </trkpt>
      <trkpt lat="47.30162" lon="-1.59372">
        <ele>49</ele>
        <time>2023-11-03T10:06:05Z</time>
      </trkpt>
      <trkpt lat="47.3037" lon="-1.59413">
        <ele>40</ele>
        <time>2023-11-03T10:10:45Z</time>
      </trkpt>
      <trkpt lat="47.30477" lon="-1.59357">
        <ele>37</ele>
        <time>2023-11-03T10:13:16Z</time>
      </trkpt>
      <trkpt lat="47.30858" lon="-1.59392">
        <ele>46</ele>
        <time>2023-11-03T10:21:46Z</time>
      </trkpt>
      <trkpt lat="47.30986" lon="-1.59505">
        <ele>35</ele>
        <time>2023-11-03T10:25:05Z</time>
      </trkpt>
      <trkpt lat="47.30999" lon="-1.59709">
        <ele>30</ele>
        <time>2023-11-03T10:28:10Z</time>
      </trkpt>
      <trkpt lat="47.31127" lon="-1.59642">
        <ele>30</ele>
        <time>2023-11-03T10:31:11Z</time>
      </trkpt>
      <trkpt lat="47.31183" lon="-1.59545">
        <ele>29</ele>
        <time>2023-11-03T10:33:07Z</time>
      </trkpt>
      <trkpt lat="47.31266" lon="-1.59508">
        <ele>23</ele>
        <time>2023-11-03T10:35:02Z</time>
      </trkpt>
      <trkpt lat="47.31338" lon="-1.59778">
        <ele>25</ele>
        <time>2023-11-03T10:39:25Z</time>
      </trkpt>
      <trkpt lat="47.31335" lon="-1.59979">
        <ele>21</ele>
        <time>2023-11-03T10:42:27Z</time>
      </trkpt>
      <trkpt lat="47.31442" lon="-1.59974">
        <ele>18</ele>
        <time>2023-11-03T10:44:50Z</time>
      </trkpt>
      <trkpt lat="47.31553" lon="-1.59372">
        <ele>15</ele>
        <time>2023-11-03T10:54:14Z</time>
      </trkpt>
      <trkpt lat="47.31529" lon="-1.58953">
        <ele>13</ele>
        <time>2023-11-03T11:00:35Z</time>
      </trkpt>
      <trkpt lat="47.32155" lon="-1.59193">
        <ele>37</ele>
        <time>2023-11-03T11:14:58Z</time>
      </trkpt>
      <trkpt lat="47.32162" lon="-1.59357">
        <ele>39</ele>
        <time>2023-11-03T11:17:26Z</time>
      </trkpt>
      <trkpt lat="47.32231" lon="-1.59351">
        <ele>38</ele>
        <time>2023-11-03T11:18:59Z</time>
      </trkpt>
      <trkpt lat="47.32314" lon="-1.59479">
        <ele>40</ele>
        <time>2023-11-03T11:21:39Z</time>
      </trkpt>
      <trkpt lat="47.32581" lon="-1.59545">
        <ele>43</ele>
        <time>2023-11-03T11:27:40Z</time>
      </trkpt>
      <trkpt lat="47.32387" lon="-1.58708">
        <ele>42</ele>
        <time>2023-11-03T11:41:00Z</time>
      </trkpt>
      <trkpt lat="47.322" lon="-1.58351">
        <ele>40</ele>
        <time>2023-11-03T11:47:48Z</time>
      </trkpt>
      <trkpt lat="47.3164" lon="-1.57734">
        <ele>41</ele>
        <time>2023-11-03T12:03:21Z</time>
      </trkpt>
      <trkpt lat="47.31003" lon="-1.56989">
        <ele>42</ele>
        <time>2023-11-03T12:21:26Z</time>
      </trkpt>
      <trkpt lat="47.30874" lon="-1.56675">
        <ele>37</ele>
        <time>2023-11-03T12:26:58Z</time>
      </trkpt>
      <trkpt lat="47.30842" lon="-1.56616">
        <ele>37</ele>
        <time>2023-11-03T12:28:07Z</time>
      </trkpt>
      <trkpt lat="47.30797" lon="-1.56568">
        <ele>37</ele>
        <time>2023-11-03T12:29:21Z</time>
      </trkpt>
      <trkpt lat="47.30768" lon="-1.56492">
        <ele>38</ele>
        <time>2023-11-03T12:30:40Z</time>
      </trkpt>
      <trkpt lat="47.30746" lon="-1.56484">
        <ele>38</ele>
        <time>2023-11-03T12:31:10Z</time>
      </trkpt>
      <trkpt lat="47.30634" lon="-1.5658">
        <ele>38</ele>
        <time>2023-11-03T12:34:03Z</time>
      </trkpt>
      <trkpt lat="47.30544" lon="-1.56492">
        <ele>37</ele>
        <time>2023-11-03T12:36:27Z</time>
      </trkpt>
      <trkpt lat="47.30455" lon="-1.56359">
        <ele>33</ele>
        <time>2023-11-03T12:39:16Z</time>
      </trkpt>
      <trkpt lat="47.30345" lon="-1.56268">
        <ele>31</ele>
        <time>2023-11-03T12:42:04Z</time>
      </trkpt>
      <trkpt lat="47.30256" lon="-1.56213">
        <ele>31</ele>
        <time>2023-11-03T12:44:13Z</time>
      </trkpt>
      <trkpt lat="47.30164" lon="-1.56196">
        <ele>31</ele>
        <time>2023-11-03T12:46:17Z</time>
      </trkpt>
      <trkpt lat="47.29929" lon="-1.56186">
        <ele>34</ele>
        <time>2023-11-03T12:51:30Z</time>
      </trkpt>
      <trkpt lat="47.29811" lon="-1.56434">
        <ele>32</ele>
        <time>2023-11-03T12:56:05Z</time>
      </trkpt>
      <trkpt lat="47.29673" lon="-1.56504">
        <ele>38</ele>
        <time>2023-11-03T12:59:19Z</time>
      </trkpt>
      <trkpt lat="47.29611" lon="-1.56528">
        <ele>38</ele>
        <time>2023-11-03T13:00:45Z</time>
      </trkpt>
      <trkpt lat="47.29647" lon="-1.5669">
        <ele>33</ele>
        <time>2023-11-03T13:03:19Z</time>
      </trkpt>
      <trkpt lat="47.29615" lon="-1.56721">
        <ele>33</ele>
        <time>2023-11-03T13:04:10Z</time>
      </trkpt>
      <trkpt lat="47.29613" lon="-1.56752">
        <ele>32</ele>
        <time>2023-11-03T13:04:38Z</time>
      </trkpt>
      <trkpt lat="47.29557" lon="-1.56779">
        <ele>31</ele>
        <time>2023-11-03T13:05:57Z</time>
      </trkpt>
      <trkpt lat="47.29402" lon="-1.5674">
        <ele>24</ele>
        <time>2023-11-03T13:09:27Z</time>
      </trkpt>
      <trkpt lat="47.29271" lon="-1.56623">
        <ele>21</ele>
        <time>2023-11-03T13:12:51Z</time>
      </trkpt>
    </trkseg>
  </trk>
</gpx>